createdAt,value
2019-05-02T00:02:15.019Z,99685.25
2019-05-02T00:04:51.014Z,99688.39
2019-05-02T00:07:24.216Z,99689.34
2019-05-02T00:09:56.599Z,99683.69
2019-05-02T00:12:29.179Z,99690.38
2019-05-02T00:15:09.180Z,99688.87
2019-05-02T00:17:41.967Z,99690.46
2019-05-02T00:20:15.892Z,99685.20
2019-05-02T00:22:52.184Z,99688.87
2019-05-02T00:25:23.947Z,99693.48
2019-05-02T00:27:55.874Z,99691.50
2019-05-02T00:30:29.997Z,99689.47
2019-05-02T00:33:02.690Z,99694.91
2019-05-02T00:35:34.635Z,99692.23
2019-05-02T00:38:08.678Z,99697.88
2019-05-02T00:40:40.637Z,99697.58
2019-05-02T00:43:12.616Z,99694.87
2019-05-02T00:45:45.675Z,99702.83
2019-05-02T00:48:29.450Z,99694.39
2019-05-02T00:51:03.303Z,99695.91
2019-05-02T00:53:35.393Z,99696.75
2019-05-02T00:56:09.078Z,99695.59
2019-05-02T00:58:44.236Z,99693.23
2019-05-02T01:01:37.809Z,99696.89
2019-05-02T01:04:29.041Z,99690.25
2019-05-02T01:07:01.599Z,99688.37
2019-05-02T01:09:34.164Z,99688.37
2019-05-02T01:12:08.460Z,99683.75
2019-05-02T01:14:39.885Z,99662.91
2019-05-02T01:17:11.836Z,99678.00
2019-05-02T01:19:51.380Z,99673.78
2019-05-02T01:22:23.786Z,99676.73
2019-05-02T01:24:55.906Z,99673.55
2019-05-02T01:27:46.759Z,99676.32
2019-05-02T01:30:44.013Z,99671.16
2019-05-02T01:33:26.067Z,99665.34
2019-05-02T01:36:23.948Z,99658.34
2019-05-02T01:39:02.875Z,99657.53
2019-05-02T01:41:39.852Z,99654.58
2019-05-02T01:44:13.145Z,99662.16
2019-05-02T01:46:45.321Z,99654.76
2019-05-02T01:49:21.825Z,99660.89
2019-05-02T01:51:54.582Z,99664.92
2019-05-02T01:54:26.803Z,99667.66
2019-05-02T01:56:58.718Z,99664.98
2019-05-02T01:59:33.970Z,99661.62
2019-05-02T02:02:05.194Z,99664.55
2019-05-02T02:04:37.464Z,99667.34
2019-05-02T02:07:09.591Z,99666.72
2019-05-02T02:09:43.898Z,99670.09
2019-05-02T02:12:18.228Z,99667.52
2019-05-02T02:14:53.627Z,99662.55
2019-05-02T02:17:24.085Z,99662.09
2019-05-02T02:20:00.912Z,99665.82
2019-05-02T02:22:44.230Z,99668.58
2019-05-02T02:25:36.240Z,99670.35
2019-05-02T02:28:08.081Z,99666.17
2019-05-02T02:30:40.134Z,99674.09
2019-05-02T02:33:13.464Z,99667.17
2019-05-02T02:35:50.344Z,99667.95
2019-05-02T02:38:19.503Z,99670.89
2019-05-02T02:40:51.656Z,99670.09
2019-05-02T02:43:33.859Z,99671.40
2019-05-02T02:46:16.295Z,99670.41
2019-05-02T02:48:48.250Z,99673.66
2019-05-02T02:51:23.603Z,99670.25
2019-05-02T02:54:03.675Z,99674.56
2019-05-02T02:56:34.512Z,99670.94
2019-05-02T02:59:03.946Z,99668.31
2019-05-02T03:01:35.981Z,99665.64
2019-05-02T03:04:10.148Z,99657.82
2019-05-02T03:06:44.850Z,99669.05
2019-05-02T03:09:20.252Z,99672.55
2019-05-02T03:12:09.017Z,99675.68
2019-05-02T03:14:47.154Z,99666.98
2019-05-02T03:17:25.351Z,99669.17
2019-05-02T03:19:54.435Z,99669.75
2019-05-02T03:22:34.762Z,99662.36
2019-05-02T03:25:03.128Z,99672.64
2019-05-02T03:27:37.403Z,99679.83
2019-05-02T03:30:29.641Z,99676.50
2019-05-02T03:33:02.687Z,99676.14
2019-05-02T03:35:40.882Z,99680.20
2019-05-02T03:37:55.400Z,99651.70
2019-05-02T03:40:32.238Z,99684.62
2019-05-02T03:43:01.660Z,99684.85
2019-05-02T03:45:40.100Z,99685.70
2019-05-02T03:48:07.529Z,99681.05
2019-05-02T03:50:40.199Z,99653.69
2019-05-02T03:53:17.701Z,99677.31
2019-05-02T03:55:46.092Z,99676.45
2019-05-02T03:58:20.935Z,99677.30
2019-05-02T04:01:00.307Z,99671.55
2019-05-02T04:03:27.142Z,99676.30
2019-05-02T04:05:59.237Z,99684.41
2019-05-02T04:08:33.562Z,99691.92
2019-05-02T04:11:25.579Z,99684.20
2019-05-02T04:13:58.043Z,99686.09
2019-05-02T04:16:31.974Z,99686.09
2019-05-02T04:19:05.297Z,99685.40
2019-05-02T04:21:37.622Z,99685.53
2019-05-02T04:24:15.001Z,99681.95
2019-05-02T04:26:52.927Z,99689.95
2019-05-02T04:29:24.578Z,99679.00
2019-05-02T04:31:53.268Z,99687.69
2019-05-02T04:34:25.299Z,99686.52
2019-05-02T04:37:00.912Z,99690.33
2019-05-02T04:39:31.010Z,99689.51
2019-05-02T04:42:13.034Z,99686.28
2019-05-02T04:44:46.319Z,99683.91
2019-05-02T04:47:17.540Z,99689.02
2019-05-02T04:49:51.508Z,99689.96
2019-05-02T04:52:21.512Z,99688.52
2019-05-02T04:55:08.398Z,99693.66
2019-05-02T04:57:36.982Z,99691.88
2019-05-02T05:00:08.631Z,99691.39
2019-05-02T05:02:40.067Z,99691.71
2019-05-02T05:05:19.443Z,99693.95
2019-05-02T05:07:49.509Z,99696.68
2019-05-02T05:10:21.766Z,99696.21
2019-05-02T05:12:53.832Z,99706.91
2019-05-02T05:15:37.145Z,99702.62
2019-05-02T05:17:59.406Z,99709.53
2019-05-02T05:20:31.402Z,99709.93
2019-05-02T05:23:03.353Z,99720.88
2019-05-02T05:25:40.322Z,99718.77
2019-05-02T05:28:12.233Z,99719.13
2019-05-02T05:30:49.182Z,99713.89
2019-05-02T05:33:20.767Z,99711.64
2019-05-02T05:35:52.835Z,99709.50
2019-05-02T05:38:28.539Z,99711.17
2019-05-02T05:41:02.981Z,99711.53
2019-05-02T05:43:38.134Z,99717.56
2019-05-02T05:46:13.144Z,99718.64
2019-05-02T05:48:44.303Z,99732.53
2019-05-02T05:51:20.438Z,99734.75
2019-05-02T05:53:52.311Z,99739.03
2019-05-02T05:56:23.450Z,99737.87
2019-05-02T05:58:58.851Z,99744.66
2019-05-02T06:01:34.674Z,99748.80
2019-05-02T06:04:05.220Z,99755.97
2019-05-02T06:06:38.759Z,99756.66
2019-05-02T06:09:14.296Z,99761.66
2019-05-02T06:11:46.333Z,99767.11
2019-05-02T06:14:19.935Z,99769.41
2019-05-02T06:16:53.183Z,99767.01
2019-05-02T06:19:26.603Z,99769.66
2019-05-02T06:21:59.151Z,99765.19
2019-05-02T06:24:33.919Z,99762.32
2019-05-02T06:27:05.275Z,99761.83
2019-05-02T06:29:37.461Z,99756.23
2019-05-02T06:32:14.029Z,99764.49
2019-05-02T06:34:47.558Z,99761.97
2019-05-02T06:37:20.461Z,99765.14
2019-05-02T06:39:52.348Z,99761.64
2019-05-02T06:42:32.722Z,99766.88
2019-05-02T06:45:03.623Z,99766.36
2019-05-02T06:47:35.950Z,99761.15
2019-05-02T06:50:09.809Z,99758.88
2019-05-02T06:52:41.729Z,99753.09
2019-05-02T06:55:13.826Z,99756.17
2019-05-02T06:57:51.813Z,99758.44
2019-05-02T07:00:35.613Z,99763.49
2019-05-02T07:03:10.319Z,99769.56
2019-05-02T07:05:39.643Z,99774.80
2019-05-02T07:08:39.546Z,99780.89
2019-05-02T07:11:11.825Z,99785.52
2019-05-02T07:13:43.958Z,99786.66
2019-05-02T07:16:37.525Z,99789.62
2019-05-02T07:19:01.417Z,99795.56
2019-05-02T07:21:33.460Z,99785.61
2019-05-02T07:24:07.196Z,99782.49
2019-05-02T07:26:39.437Z,99780.78
2019-05-02T07:29:17.056Z,99783.21
2019-05-02T07:31:47.762Z,99788.05
2019-05-02T07:34:21.612Z,99777.55
2019-05-02T07:36:53.653Z,99765.22
2019-05-02T07:39:25.640Z,99764.17
2019-05-02T07:42:00.554Z,99765.02
2019-05-02T07:44:34.662Z,99776.59
2019-05-02T07:47:06.706Z,99779.02
2019-05-02T07:49:38.760Z,99780.30
2019-05-02T07:52:10.728Z,99782.84
2019-05-02T07:54:42.744Z,99785.22
2019-05-02T07:57:15.168Z,99783.36
2019-05-02T07:59:49.888Z,99780.08
2019-05-02T08:02:24.997Z,99768.41
2019-05-02T08:04:56.094Z,99756.48
2019-05-02T08:07:34.290Z,99748.03
2019-05-02T08:10:01.922Z,99751.88
2019-05-02T08:12:34.662Z,99751.05
2019-05-02T08:15:13.061Z,99756.94
2019-05-02T08:17:44.094Z,99752.88
2019-05-02T08:20:19.353Z,99758.98
2019-05-02T08:22:50.757Z,99749.30
2019-05-02T08:25:24.480Z,99745.35
2019-05-02T08:28:16.025Z,99745.31
2019-05-02T08:30:52.275Z,99743.45
2019-05-02T08:33:29.429Z,99742.70
2019-05-02T08:35:58.841Z,99740.14
2019-05-02T08:38:30.824Z,99734.96
2019-05-02T08:41:02.823Z,99743.14
2019-05-02T08:43:34.772Z,99735.94
2019-05-02T08:46:09.536Z,99735.94
2019-05-02T08:48:41.870Z,99727.61
2019-05-02T08:51:14.681Z,99732.41
2019-05-02T08:53:46.627Z,99719.33
2019-05-02T08:56:21.366Z,99723.06
2019-05-02T08:58:54.012Z,99726.67
2019-05-02T09:01:34.929Z,99727.94
2019-05-02T09:04:00.420Z,99732.19
2019-05-02T09:06:32.351Z,99738.89
2019-05-02T09:09:08.372Z,99747.97
2019-05-02T09:11:41.527Z,99747.97
2019-05-02T09:14:13.828Z,99743.98
2019-05-02T09:16:46.193Z,99748.59
2019-05-02T09:19:21.217Z,99749.20
2019-05-02T09:21:53.592Z,99745.89
2019-05-02T09:24:25.605Z,99758.22
2019-05-02T09:26:59.506Z,99752.09
2019-05-02T09:29:32.696Z,99744.62
2019-05-02T09:32:05.094Z,99736.32
2019-05-02T09:34:38.076Z,99733.59
2019-05-02T09:37:12.091Z,99736.89
2019-05-02T09:39:44.304Z,99733.27
2019-05-02T09:42:19.108Z,99736.98
2019-05-02T09:44:56.784Z,99737.45
2019-05-02T09:47:33.271Z,99734.67
2019-05-02T09:50:20.546Z,99728.47
2019-05-02T09:52:52.558Z,99731.16
2019-05-02T09:55:26.718Z,99736.19
2019-05-02T09:58:02.483Z,99741.50
2019-05-02T10:00:45.806Z,99741.27
2019-05-02T10:03:18.214Z,99745.09
2019-05-02T10:05:52.177Z,99741.00
2019-05-02T10:08:26.158Z,99731.84
2019-05-02T10:10:58.418Z,99736.95
2019-05-02T10:13:32.129Z,99738.35
2019-05-02T10:16:04.409Z,99730.69
2019-05-02T10:18:36.433Z,99727.66
2019-05-02T10:21:13.560Z,99725.52
2019-05-02T10:23:42.833Z,99730.59
2019-05-02T10:26:20.110Z,99733.60
2019-05-02T10:28:50.671Z,99728.52
2019-05-02T10:31:22.903Z,99728.53
2019-05-02T10:33:54.870Z,99722.78
2019-05-02T10:36:26.980Z,99728.52
2019-05-02T10:38:59.452Z,99720.92
2019-05-02T10:41:39.528Z,99729.31
2019-05-02T10:44:05.891Z,99726.30
2019-05-02T10:46:49.245Z,99723.77
2019-05-02T10:49:26.447Z,99722.73
2019-05-02T10:51:58.424Z,99718.48
2019-05-02T10:54:36.183Z,99717.02
2019-05-02T10:57:06.507Z,99721.44
2019-05-02T10:59:38.457Z,99720.91
2019-05-02T11:02:22.209Z,99716.73
2019-05-02T11:04:59.051Z,99720.61
2019-05-02T11:07:32.663Z,99722.73
2019-05-02T11:10:06.872Z,99720.68
2019-05-02T11:12:46.939Z,99721.42
2019-05-02T11:15:38.591Z,99717.00
2019-05-02T11:18:12.649Z,99722.55
2019-05-02T11:20:44.497Z,99719.79
2019-05-02T11:23:16.858Z,99711.58
2019-05-02T11:25:48.990Z,99716.66
2019-05-02T11:28:22.091Z,99713.86
2019-05-02T11:30:57.019Z,99720.05
2019-05-02T11:33:29.556Z,99715.94
2019-05-02T11:36:02.544Z,99723.94
2019-05-02T11:38:48.222Z,99722.03
2019-05-02T11:41:08.813Z,99715.91
2019-05-02T11:43:42.389Z,99722.21
2019-05-02T11:46:14.449Z,99715.89
2019-05-02T11:48:55.651Z,99715.03
2019-05-02T11:51:22.678Z,99705.44
2019-05-02T11:53:59.440Z,99708.01
2019-05-02T11:56:32.804Z,99704.88
2019-05-02T11:59:06.011Z,99702.66
2019-05-02T12:01:39.804Z,99691.63
2019-05-02T12:04:16.600Z,99697.22
2019-05-02T12:06:50.083Z,99694.55
2019-05-02T12:09:19.870Z,99696.65
2019-05-02T12:11:56.536Z,99692.02
2019-05-02T12:14:27.450Z,99697.68
2019-05-02T12:16:59.329Z,99694.55
2019-05-02T12:19:32.222Z,99683.72
2019-05-02T12:22:07.127Z,99679.08
2019-05-02T12:24:40.897Z,99667.66
2019-05-02T12:27:11.899Z,99654.99
2019-05-02T12:29:44.095Z,99658.44
2019-05-02T12:32:17.963Z,99650.16
2019-05-02T12:34:50.000Z,99652.76
2019-05-02T12:37:22.167Z,99642.78
2019-05-02T12:39:54.173Z,99635.05
2019-05-02T12:42:26.567Z,99632.96
2019-05-02T12:44:58.906Z,99629.72
2019-05-02T12:47:31.939Z,99625.52
2019-05-02T12:50:04.579Z,99629.44
2019-05-02T12:52:36.709Z,99629.44
2019-05-02T12:55:08.941Z,99633.81
2019-05-02T12:57:42.850Z,99627.72
2019-05-02T13:00:18.472Z,99633.85
2019-05-02T13:03:11.757Z,99626.77
2019-05-02T13:05:45.911Z,99622.92
2019-05-02T13:08:18.188Z,99622.83
2019-05-02T13:11:14.978Z,99630.69
2019-05-02T13:13:47.238Z,99629.27
2019-05-02T13:16:22.560Z,99623.20
2019-05-02T13:18:57.262Z,99619.38
2019-05-02T13:21:42.226Z,99616.11
2019-05-02T13:24:16.597Z,99615.24
2019-05-02T13:26:52.027Z,99612.34
2019-05-02T13:29:23.312Z,99611.81
2019-05-02T13:32:08.692Z,99610.43
2019-05-02T13:34:48.332Z,99611.13
2019-05-02T13:37:19.566Z,99609.30
2019-05-02T13:40:17.183Z,99613.06
2019-05-02T13:42:52.199Z,99606.87
2019-05-02T13:45:45.766Z,99601.18
2019-05-02T13:48:21.800Z,99605.98
2019-05-02T13:50:53.878Z,99596.33
2019-05-02T13:53:26.141Z,99594.88
2019-05-02T13:56:17.002Z,99596.52
2019-05-02T13:58:48.944Z,99594.34
2019-05-02T14:01:22.391Z,99594.23
2019-05-02T14:03:55.853Z,99594.88
2019-05-02T14:06:29.810Z,99584.34
2019-05-02T14:09:40.315Z,99584.49
2019-05-02T14:12:37.454Z,99579.88
2019-05-02T14:15:13.663Z,99581.83
2019-05-02T14:17:45.311Z,99576.72
2019-05-02T14:20:22.344Z,99575.33
2019-05-02T14:22:54.721Z,99570.98
2019-05-02T14:25:28.176Z,99570.70
2019-05-02T14:28:00.161Z,99569.90
2019-05-02T14:30:39.315Z,99568.84
2019-05-02T14:33:12.146Z,99569.02
2019-05-02T14:35:46.010Z,99556.28
2019-05-02T14:38:18.249Z,99547.25
2019-05-02T14:41:13.397Z,99548.02
2019-05-02T14:43:52.623Z,99552.45
2019-05-02T14:46:34.313Z,99537.47
2019-05-02T14:49:02.714Z,99537.47
2019-05-02T14:51:36.760Z,99541.35
2019-05-02T14:54:17.096Z,99535.92
2019-05-02T14:56:57.249Z,99527.63
2019-05-02T14:59:29.477Z,99527.63
2019-05-02T15:02:07.392Z,99527.17
2019-05-02T15:04:44.387Z,99527.17
2019-05-02T15:07:17.687Z,99531.00
2019-05-02T15:09:48.123Z,99528.78
2019-05-02T15:12:37.833Z,99526.34
2019-05-02T15:15:12.293Z,99519.90
2019-05-02T15:17:44.645Z,99509.41
2019-05-02T15:20:19.814Z,99513.56
2019-05-02T15:22:53.495Z,99509.52
2019-05-02T15:25:25.750Z,99509.22
2019-05-02T15:27:59.959Z,99506.23
2019-05-02T15:30:37.288Z,99509.59
2019-05-02T15:33:12.401Z,99499.84
2019-05-02T15:36:05.727Z,99502.33
2019-05-02T15:38:37.353Z,99490.22
2019-05-02T15:41:10.438Z,99495.23
2019-05-02T15:43:44.615Z,99493.62
2019-05-02T15:46:23.634Z,99489.81
2019-05-02T15:48:51.979Z,99481.23
2019-05-02T15:51:25.889Z,99486.12
2019-05-02T15:54:08.485Z,99487.00
2019-05-02T15:57:00.149Z,99484.84
2019-05-02T15:59:42.267Z,99484.84
2019-05-02T16:02:13.110Z,99481.16
2019-05-02T16:04:46.921Z,99481.16
2019-05-02T16:07:22.356Z,99481.32
2019-05-02T16:09:59.379Z,99475.84
2019-05-02T16:12:32.173Z,99479.67
2019-05-02T16:15:02.442Z,99467.76
2019-05-02T16:17:36.822Z,99465.97
2019-05-02T16:20:17.134Z,99465.89
2019-05-02T16:22:52.313Z,99464.55
2019-05-02T16:25:24.601Z,99462.66
2019-05-02T16:28:02.665Z,99463.39
2019-05-02T16:30:32.418Z,99466.95
2019-05-02T16:33:07.977Z,99464.14
2019-05-02T16:35:38.482Z,99458.20
2019-05-02T16:38:12.267Z,99452.91
2019-05-02T16:40:46.411Z,99464.10
2019-05-02T16:43:18.364Z,99459.28
2019-05-02T16:45:53.264Z,99468.87
2019-05-02T16:48:30.600Z,99460.45
2019-05-02T16:51:02.184Z,99460.45
2019-05-02T16:53:36.178Z,99459.55
2019-05-02T16:56:08.138Z,99459.55
2019-05-02T16:58:43.388Z,99466.87
2019-05-02T17:01:24.635Z,99467.78
2019-05-02T17:03:57.668Z,99466.48
2019-05-02T17:06:29.381Z,99459.03
2019-05-02T17:09:28.713Z,99465.96
2019-05-02T17:12:01.903Z,99451.42
2019-05-02T17:14:33.982Z,99456.55
2019-05-02T17:17:07.855Z,99456.55
2019-05-02T17:19:39.811Z,99454.34
2019-05-02T17:22:12.162Z,99442.06
2019-05-02T17:24:44.604Z,99448.41
2019-05-02T17:27:20.596Z,99437.69
2019-05-02T17:29:52.491Z,99437.69
2019-05-02T17:32:24.505Z,99442.95
2019-05-02T17:35:02.620Z,99448.71
2019-05-02T17:37:32.567Z,99434.35
2019-05-02T17:40:05.612Z,99442.98
2019-05-02T17:42:37.676Z,99449.20
2019-05-02T17:45:10.447Z,99446.52
2019-05-02T17:47:42.579Z,99445.22
2019-05-02T17:50:28.761Z,99439.44
2019-05-02T17:53:02.997Z,99444.81
2019-05-02T17:55:40.370Z,99438.78
2019-05-02T17:58:14.141Z,99444.34
2019-05-02T18:00:47.357Z,99434.68
2019-05-02T18:03:30.757Z,99440.30
2019-05-02T18:05:57.480Z,99431.86
2019-05-02T18:08:29.602Z,99429.94
2019-05-02T18:11:02.765Z,99436.05
2019-05-02T18:13:35.638Z,99438.17
2019-05-02T18:16:15.010Z,99436.37
2019-05-02T18:18:45.085Z,99442.63
2019-05-02T18:21:24.932Z,99442.17
2019-05-02T18:23:57.248Z,99441.51
2019-05-02T18:26:27.400Z,99442.77
2019-05-02T18:29:02.765Z,99440.03
2019-05-02T18:31:39.629Z,99439.66
2019-05-02T18:34:14.445Z,99436.68
2019-05-02T18:36:44.613Z,99436.28
2019-05-02T18:39:16.665Z,99437.56
2019-05-02T18:41:51.972Z,99432.03
2019-05-02T18:44:24.443Z,99435.29
2019-05-02T18:46:57.973Z,99439.54
2019-05-02T18:49:32.127Z,99442.34
2019-05-02T18:52:04.662Z,99439.23
2019-05-02T18:54:38.566Z,99443.19
2019-05-02T18:57:17.082Z,99444.41
2019-05-02T18:59:51.962Z,99442.02
2019-05-02T19:02:26.405Z,99444.17
2019-05-02T19:04:56.924Z,99446.79
2019-05-02T19:07:33.188Z,99454.66
2019-05-02T19:10:07.135Z,99452.15
2019-05-02T19:12:39.324Z,99456.97
2019-05-02T19:15:12.054Z,99455.67
2019-05-02T19:17:49.453Z,99457.33
2019-05-02T19:21:07.420Z,99462.09
2019-05-02T19:23:39.944Z,99462.92
2019-05-02T19:26:15.469Z,99463.02
2019-05-02T19:28:53.468Z,99460.63
2019-05-02T19:31:44.377Z,99461.55
2019-05-02T19:34:16.754Z,99465.84
2019-05-02T19:36:48.214Z,99471.77
2019-05-02T19:39:23.925Z,99468.46
2019-05-02T19:41:54.885Z,99478.69
2019-05-02T19:44:29.454Z,99479.44
2019-05-02T19:47:02.539Z,99483.19
2019-05-02T19:49:34.797Z,99485.69
2019-05-02T19:52:10.031Z,99489.91
2019-05-02T19:54:43.645Z,99488.78
2019-05-02T19:57:17.144Z,99496.72
2019-05-02T19:59:52.409Z,99502.59
2019-05-02T20:02:24.618Z,99500.45
2019-05-02T20:04:57.169Z,99506.88
2019-05-02T20:07:29.451Z,99505.98
2019-05-02T20:10:01.951Z,99505.72
2019-05-02T20:12:34.484Z,99505.54
2019-05-02T20:15:09.040Z,99508.02
2019-05-02T20:17:42.302Z,99513.02
2019-05-02T20:21:12.213Z,99511.45
2019-05-02T20:23:44.193Z,99513.53
2019-05-02T20:26:17.133Z,99517.80
2019-05-02T20:28:49.418Z,99523.43
2019-05-02T20:31:22.044Z,99520.49
2019-05-02T20:33:57.487Z,99522.95
2019-05-02T20:36:29.696Z,99518.56
2019-05-02T20:39:02.596Z,99520.47
2019-05-02T20:41:36.357Z,99527.52
2019-05-02T20:44:12.025Z,99521.05
2019-05-02T20:46:44.337Z,99525.81
2019-05-02T20:49:17.998Z,99527.19
2019-05-02T20:51:51.809Z,99532.86
2019-05-02T20:54:24.696Z,99533.93
2019-05-02T20:56:57.306Z,99531.31
2019-05-02T20:59:32.290Z,99531.36
2019-05-02T21:02:04.797Z,99532.55
2019-05-02T21:04:37.929Z,99536.63
2019-05-02T21:07:38.288Z,99542.77
2019-05-02T21:10:19.141Z,99545.13
2019-05-02T21:12:52.594Z,99539.25
2019-05-02T21:15:25.174Z,99543.19
2019-05-02T21:17:57.384Z,99545.02
2019-05-02T21:20:47.172Z,99546.73
2019-05-02T21:23:43.397Z,99545.56
2019-05-02T21:26:21.646Z,99545.30
2019-05-02T21:29:06.843Z,99548.55
2019-05-02T21:31:47.559Z,99550.39
2019-05-02T21:34:31.703Z,99555.59
2019-05-02T21:37:16.884Z,99559.11
2019-05-02T21:40:02.753Z,99557.80
2019-05-02T21:42:53.986Z,99559.36
2019-05-02T21:45:37.672Z,99556.39
2019-05-02T21:48:27.207Z,99559.13
2019-05-02T21:51:19.940Z,99562.55
2019-05-02T21:54:22.592Z,99563.27
2019-05-02T21:57:19.082Z,99564.17
2019-05-02T22:00:04.149Z,99556.09
2019-05-02T22:02:45.844Z,99560.41
2019-05-02T22:05:28.302Z,99557.77
2019-05-02T22:08:12.162Z,99551.87
2019-05-02T22:10:59.118Z,99556.82
2019-05-02T22:13:55.736Z,99563.09
2019-05-02T22:16:43.456Z,99562.79
2019-05-02T22:19:21.985Z,99555.87
2019-05-02T22:22:01.637Z,99557.34
2019-05-02T22:24:45.006Z,99559.34
2019-05-02T22:27:24.598Z,99557.67
2019-05-02T22:30:12.399Z,99555.89
2019-05-02T22:32:54.229Z,99549.77
2019-05-02T22:35:30.208Z,99552.25
2019-05-02T22:38:22.646Z,99556.86
2019-05-02T22:41:12.149Z,99549.27
2019-05-02T22:43:54.525Z,99552.91
2019-05-02T22:46:47.354Z,99547.95
2019-05-02T22:49:32.026Z,99545.60
2019-05-02T22:52:14.344Z,99554.20
2019-05-02T22:55:05.248Z,99550.39
2019-05-02T22:57:58.924Z,99554.66
2019-05-02T23:00:36.023Z,99555.82
2019-05-02T23:03:12.636Z,99554.14
2019-05-02T23:05:44.766Z,99548.19
2019-05-02T23:08:18.090Z,99550.50
2019-05-02T23:10:51.956Z,99554.11
2019-05-02T23:13:27.498Z,99554.61
2019-05-02T23:16:00.508Z,99552.95
2019-05-02T23:18:33.214Z,99549.14
2019-05-02T23:21:05.497Z,99554.05
2019-05-02T23:23:41.721Z,99549.09
2019-05-02T23:26:18.848Z,99555.17
2019-05-02T23:28:52.829Z,99554.59
2019-05-02T23:31:25.411Z,99556.00
2019-05-02T23:34:02.117Z,99553.70
2019-05-02T23:36:35.095Z,99555.02
2019-05-02T23:39:12.427Z,99563.43
2019-05-02T23:41:44.705Z,99565.89
2019-05-02T23:44:16.836Z,99565.86
2019-05-02T23:46:48.990Z,99561.22
2019-05-02T23:49:24.497Z,99567.23
2019-05-02T23:51:56.873Z,99559.04
2019-05-02T23:54:28.970Z,99563.70
2019-05-02T23:57:01.997Z,99559.98
2019-05-02T23:59:34.475Z,99558.80
